sensor_id;sensor_type;location;lat;lon;timestamp;P1;durP1;ratioP1;P2;durP2;ratioP2
73816;SDS011;62146;53.232;-1.304;2022-12-29T00:00:05;12.95;;;2.00;;
73816;SDS011;62146;53.232;-1.304;2022-12-29T00:02:33;12.38;;;2.40;;
73816;SDS011;62146;53.232;-1.304;2022-12-29T00:05:00;11.60;;;2.17;;
73816;SDS011;62146;53.232;-1.304;2022-12-29T00:07:26;11.10;;;1.80;;
73816;SDS011;62146;53.232;-1.304;2022-12-29T00:09:53;16.42;;;2.90;;
73816;SDS011;62146;53.232;-1.304;2022-12-29T00:12:19;15.30;;;2.33;;
73816;SDS011;62146;53.232;-1.304;2022-12-29T00:14:46;13.40;;;2.10;;
73816;SDS011;62146;53.232;-1.304;2022-12-29T00:17:32;10.63;;;1.90;;
73816;SDS011;62146;53.232;-1.304;2022-12-29T00:19:58;15.93;;;2.38;;
73816;SDS011;62146;53.232;-1.304;2022-12-29T00:22:43;12.05;;;2.08;;
73816;SDS011;62146;53.232;-1.304;2022-12-29T00:25:29;10.15;;;1.77;;
73816;SDS011;62146;53.232;-1.304;2022-12-29T00:28:14;11.90;;;2.03;;
73816;SDS011;62146;53.232;-1.304;2022-12-29T00:30:59;10.57;;;1.70;;
73816;SDS011;62146;53.232;-1.304;2022-12-29T00:33:45;12.07;;;1.95;;
73816;SDS011;62146;53.232;-1.304;2022-12-29T00:36:34;12.75;;;1.85;;
73816;SDS011;62146;53.232;-1.304;2022-12-29T00:39:15;12.73;;;2.10;;
73816;SDS011;62146;53.232;-1.304;2022-12-29T00:42:03;10.38;;;1.48;;
73816;SDS011;62146;53.232;-1.304;2022-12-29T00:44:49;13.23;;;2.07;;
73816;SDS011;62146;53.232;-1.304;2022-12-29T00:47:16;12.52;;;1.70;;
73816;SDS011;62146;53.232;-1.304;2022-12-29T00:49:43;20.17;;;1.95;;
73816;SDS011;62146;53.232;-1.304;2022-12-29T00:52:11;13.32;;;1.90;;
73816;SDS011;62146;53.232;-1.304;2022-12-29T00:54:39;11.23;;;1.83;;
73816;SDS011;62146;53.232;-1.304;2022-12-29T00:57:07;11.63;;;1.80;;
73816;SDS011;62146;53.232;-1.304;2022-12-29T00:59:36;11.60;;;1.92;;
73816;SDS011;62146;53.232;-1.304;2022-12-29T01:02:03;11.68;;;2.05;;
73816;SDS011;62146;53.232;-1.304;2022-12-29T01:04:30;13.98;;;2.10;;
73816;SDS011;62146;53.232;-1.304;2022-12-29T01:06:58;11.90;;;1.88;;
73816;SDS011;62146;53.232;-1.304;2022-12-29T01:09:24;13.83;;;1.80;;
73816;SDS011;62146;53.232;-1.304;2022-12-29T01:12:09;12.90;;;1.90;;
73816;SDS011;62146;53.232;-1.304;2022-12-29T01:14:37;11.70;;;1.85;;
73816;SDS011;62146;53.232;-1.304;2022-12-29T01:17:04;13.90;;;1.90;;
73816;SDS011;62146;53.232;-1.304;2022-12-29T01:19:31;14.30;;;2.53;;
73816;SDS011;62146;53.232;-1.304;2022-12-29T01:21:59;12.83;;;2.10;;
73816;SDS011;62146;53.232;-1.304;2022-12-29T01:24:25;13.35;;;2.15;;
73816;SDS011;62146;53.232;-1.304;2022-12-29T01:26:52;11.85;;;1.70;;
73816;SDS011;62146;53.232;-1.304;2022-12-29T01:29:21;11.40;;;1.85;;
73816;SDS011;62146;53.232;-1.304;2022-12-29T01:31:48;9.88;;;1.95;;
73816;SDS011;62146;53.232;-1.304;2022-12-29T01:34:16;9.83;;;1.30;;
73816;SDS011;62146;53.232;-1.304;2022-12-29T01:36:44;12.07;;;1.65;;
73816;SDS011;62146;53.232;-1.304;2022-12-29T01:39:10;11.57;;;2.00;;
73816;SDS011;62146;53.232;-1.304;2022-12-29T01:41:37;11.35;;;1.52;;
73816;SDS011;62146;53.232;-1.304;2022-12-29T01:44:39;12.77;;;1.75;;
73816;SDS011;62146;53.232;-1.304;2022-12-29T01:47:09;9.43;;;1.87;;
73816;SDS011;62146;53.232;-1.304;2022-12-29T01:49:36;12.48;;;1.70;;
73816;SDS011;62146;53.232;-1.304;2022-12-29T01:52:04;12.50;;;1.60;;
73816;SDS011;62146;53.232;-1.304;2022-12-29T01:54:36;11.10;;;1.63;;
73816;SDS011;62146;53.232;-1.304;2022-12-29T01:57:11;10.52;;;1.77;;
73816;SDS011;62146;53.232;-1.304;2022-12-29T01:59:45;11.20;;;1.80;;
73816;SDS011;62146;53.232;-1.304;2022-12-29T02:02:16;10.48;;;1.63;;
73816;SDS011;62146;53.232;-1.304;2022-12-29T02:04:43;12.38;;;1.80;;
73816;SDS011;62146;53.232;-1.304;2022-12-29T02:07:17;13.68;;;2.00;;
73816;SDS011;62146;53.232;-1.304;2022-12-29T02:09:49;13.88;;;1.77;;
73816;SDS011;62146;53.232;-1.304;2022-12-29T02:12:18;8.37;;;1.77;;
73816;SDS011;62146;53.232;-1.304;2022-12-29T02:14:47;11.90;;;1.80;;
73816;SDS011;62146;53.232;-1.304;2022-12-29T02:17:20;12.00;;;1.90;;
73816;SDS011;62146;53.232;-1.304;2022-12-29T02:27:48;10.00;;;1.45;;
73816;SDS011;62146;53.232;-1.304;2022-12-29T02:38:51;8.57;;;1.27;;
73816;SDS011;62146;53.232;-1.304;2022-12-29T02:41:42;10.15;;;1.40;;
73816;SDS011;62146;53.232;-1.304;2022-12-29T02:44:18;11.98;;;1.92;;
73816;SDS011;62146;53.232;-1.304;2022-12-29T02:46:59;7.25;;;1.48;;
73816;SDS011;62146;53.232;-1.304;2022-12-29T02:49:33;12.25;;;1.50;;
73816;SDS011;62146;53.232;-1.304;2022-12-29T02:52:10;8.30;;;1.40;;
73816;SDS011;62146;53.232;-1.304;2022-12-29T02:54:43;7.22;;;1.25;;
73816;SDS011;62146;53.232;-1.304;2022-12-29T02:59:51;11.10;;;1.40;;
73816;SDS011;62146;53.232;-1.304;2022-12-29T03:02:30;10.07;;;1.88;;
73816;SDS011;62146;53.232;-1.304;2022-12-29T03:08:27;5.80;;;1.00;;
73816;SDS011;62146;53.232;-1.304;2022-12-29T03:10:48;6.20;;;1.05;;
73816;SDS011;62146;53.232;-1.304;2022-12-29T03:21:17;3.55;;;0.65;;
73816;SDS011;62146;53.232;-1.304;2022-12-29T03:24:13;4.00;;;0.70;;
73816;SDS011;62146;53.232;-1.304;2022-12-29T03:26:43;3.47;;;0.57;;
73816;SDS011;62146;53.232;-1.304;2022-12-29T03:29:13;4.70;;;0.90;;
73816;SDS011;62146;53.232;-1.304;2022-12-29T03:31:41;2.03;;;0.50;;
73816;SDS011;62146;53.232;-1.304;2022-12-29T03:34:09;2.30;;;0.50;;
73816;SDS011;62146;53.232;-1.304;2022-12-29T03:36:43;3.20;;;0.60;;
73816;SDS011;62146;53.232;-1.304;2022-12-29T03:39:14;2.42;;;0.60;;
73816;SDS011;62146;53.232;-1.304;2022-12-29T03:41:41;2.83;;;0.57;;
73816;SDS011;62146;53.232;-1.304;2022-12-29T03:44:11;1.70;;;0.47;;
73816;SDS011;62146;53.232;-1.304;2022-12-29T03:46:39;1.90;;;0.40;;
73816;SDS011;62146;53.232;-1.304;2022-12-29T03:49:06;2.85;;;0.50;;
73816;SDS011;62146;53.232;-1.304;2022-12-29T03:51:32;2.03;;;0.47;;
73816;SDS011;62146;53.232;-1.304;2022-12-29T03:53:59;2.80;;;0.40;;
73816;SDS011;62146;53.232;-1.304;2022-12-29T03:56:26;1.27;;;0.40;;
73816;SDS011;62146;53.232;-1.304;2022-12-29T03:58:52;1.60;;;0.40;;
73816;SDS011;62146;53.232;-1.304;2022-12-29T04:01:19;3.33;;;0.50;;
73816;SDS011;62146;53.232;-1.304;2022-12-29T04:03:46;1.10;;;0.40;;
73816;SDS011;62146;53.232;-1.304;2022-12-29T04:06:12;2.63;;;0.50;;
73816;SDS011;62146;53.232;-1.304;2022-12-29T04:08:39;1.70;;;0.50;;
73816;SDS011;62146;53.232;-1.304;2022-12-29T04:11:05;2.95;;;0.50;;
73816;SDS011;62146;53.232;-1.304;2022-12-29T04:13:32;2.55;;;0.60;;
73816;SDS011;62146;53.232;-1.304;2022-12-29T04:15:59;2.72;;;0.80;;
73816;SDS011;62146;53.232;-1.304;2022-12-29T04:18:25;2.95;;;0.60;;
73816;SDS011;62146;53.232;-1.304;2022-12-29T04:20:52;3.20;;;0.70;;
73816;SDS011;62146;53.232;-1.304;2022-12-29T04:23:33;2.72;;;0.60;;
73816;SDS011;62146;53.232;-1.304;2022-12-29T04:26:02;3.13;;;0.70;;
73816;SDS011;62146;53.232;-1.304;2022-12-29T04:28:29;2.83;;;0.60;;
73816;SDS011;62146;53.232;-1.304;2022-12-29T04:30:56;2.08;;;0.70;;
73816;SDS011;62146;53.232;-1.304;2022-12-29T04:33:23;3.03;;;0.60;;
73816;SDS011;62146;53.232;-1.304;2022-12-29T04:35:50;1.95;;;0.50;;
73816;SDS011;62146;53.232;-1.304;2022-12-29T04:38:18;2.97;;;0.57;;
73816;SDS011;62146;53.232;-1.304;2022-12-29T04:40:44;2.80;;;0.60;;
73816;SDS011;62146;53.232;-1.304;2022-12-29T04:43:12;3.38;;;0.75;;
73816;SDS011;62146;53.232;-1.304;2022-12-29T04:45:42;1.43;;;0.50;;
73816;SDS011;62146;53.232;-1.304;2022-12-29T04:48:10;3.03;;;0.55;;
73816;SDS011;62146;53.232;-1.304;2022-12-29T04:50:36;2.83;;;0.70;;
73816;SDS011;62146;53.232;-1.304;2022-12-29T04:53:03;1.95;;;0.50;;
73816;SDS011;62146;53.232;-1.304;2022-12-29T04:55:30;1.38;;;0.40;;
73816;SDS011;62146;53.232;-1.304;2022-12-29T04:57:56;2.13;;;0.50;;
73816;SDS011;62146;53.232;-1.304;2022-12-29T05:00:23;4.93;;;0.65;;
73816;SDS011;62146;53.232;-1.304;2022-12-29T05:02:49;1.70;;;0.60;;
73816;SDS011;62146;53.232;-1.304;2022-12-29T05:05:16;6.18;;;0.70;;
73816;SDS011;62146;53.232;-1.304;2022-12-29T05:07:44;2.88;;;0.80;;
73816;SDS011;62146;53.232;-1.304;2022-12-29T05:10:11;2.47;;;0.60;;
73816;SDS011;62146;53.232;-1.304;2022-12-29T05:12:38;1.85;;;0.55;;
73816;SDS011;62146;53.232;-1.304;2022-12-29T05:15:05;2.17;;;0.73;;
73816;SDS011;62146;53.232;-1.304;2022-12-29T05:17:33;2.00;;;0.50;;
73816;SDS011;62146;53.232;-1.304;2022-12-29T05:20:00;3.00;;;0.90;;
73816;SDS011;62146;53.232;-1.304;2022-12-29T05:22:27;1.20;;;0.50;;
73816;SDS011;62146;53.232;-1.304;2022-12-29T05:24:53;1.77;;;0.50;;
73816;SDS011;62146;53.232;-1.304;2022-12-29T05:27:20;2.28;;;0.60;;
73816;SDS011;62146;53.232;-1.304;2022-12-29T05:29:46;1.90;;;0.52;;
73816;SDS011;62146;53.232;-1.304;2022-12-29T05:32:13;2.60;;;0.70;;
73816;SDS011;62146;53.232;-1.304;2022-12-29T05:34:39;2.23;;;0.63;;
73816;SDS011;62146;53.232;-1.304;2022-12-29T05:37:06;3.40;;;0.82;;
73816;SDS011;62146;53.232;-1.304;2022-12-29T05:39:33;2.47;;;0.70;;
73816;SDS011;62146;53.232;-1.304;2022-12-29T05:42:00;2.80;;;0.82;;
73816;SDS011;62146;53.232;-1.304;2022-12-29T05:44:27;2.47;;;0.73;;
73816;SDS011;62146;53.232;-1.304;2022-12-29T05:46:53;2.93;;;0.60;;
73816;SDS011;62146;53.232;-1.304;2022-12-29T05:49:20;2.72;;;0.70;;
73816;SDS011;62146;53.232;-1.304;2022-12-29T05:51:46;2.25;;;0.60;;
73816;SDS011;62146;53.232;-1.304;2022-12-29T05:54:13;1.77;;;0.70;;
73816;SDS011;62146;53.232;-1.304;2022-12-29T05:56:39;4.40;;;0.90;;
73816;SDS011;62146;53.232;-1.304;2022-12-29T05:59:06;1.83;;;0.60;;
73816;SDS011;62146;53.232;-1.304;2022-12-29T06:01:33;2.33;;;0.70;;
73816;SDS011;62146;53.232;-1.304;2022-12-29T06:04:00;2.42;;;0.60;;
73816;SDS011;62146;53.232;-1.304;2022-12-29T06:06:27;1.98;;;0.63;;
73816;SDS011;62146;53.232;-1.304;2022-12-29T06:08:54;3.17;;;0.82;;
73816;SDS011;62146;53.232;-1.304;2022-12-29T06:11:20;1.93;;;0.53;;
73816;SDS011;62146;53.232;-1.304;2022-12-29T06:13:47;2.40;;;0.68;;
73816;SDS011;62146;53.232;-1.304;2022-12-29T06:16:13;3.90;;;0.80;;
73816;SDS011;62146;53.232;-1.304;2022-12-29T06:18:40;2.95;;;0.82;;
73816;SDS011;62146;53.232;-1.304;2022-12-29T06:21:06;3.53;;;0.80;;
73816;SDS011;62146;53.232;-1.304;2022-12-29T06:23:34;3.03;;;0.83;;
73816;SDS011;62146;53.232;-1.304;2022-12-29T06:26:00;4.53;;;0.70;;
73816;SDS011;62146;53.232;-1.304;2022-12-29T06:28:27;3.15;;;0.80;;
73816;SDS011;62146;53.232;-1.304;2022-12-29T06:30:53;3.13;;;0.75;;
73816;SDS011;62146;53.232;-1.304;2022-12-29T06:33:20;2.53;;;0.70;;
73816;SDS011;62146;53.232;-1.304;2022-12-29T06:35:47;2.87;;;0.63;;
73816;SDS011;62146;53.232;-1.304;2022-12-29T06:38:13;2.67;;;0.70;;
73816;SDS011;62146;53.232;-1.304;2022-12-29T06:40:41;3.13;;;0.70;;
73816;SDS011;62146;53.232;-1.304;2022-12-29T06:43:09;1.60;;;0.60;;
73816;SDS011;62146;53.232;-1.304;2022-12-29T06:45:37;2.42;;;0.70;;
73816;SDS011;62146;53.232;-1.304;2022-12-29T06:48:05;4.23;;;0.77;;
73816;SDS011;62146;53.232;-1.304;2022-12-29T06:50:32;5.32;;;1.15;;
73816;SDS011;62146;53.232;-1.304;2022-12-29T06:52:58;2.53;;;0.70;;
73816;SDS011;62146;53.232;-1.304;2022-12-29T06:55:25;4.07;;;0.82;;
73816;SDS011;62146;53.232;-1.304;2022-12-29T06:57:54;1.92;;;0.70;;
73816;SDS011;62146;53.232;-1.304;2022-12-29T07:00:24;3.73;;;1.00;;
73816;SDS011;62146;53.232;-1.304;2022-12-29T07:02:51;3.10;;;0.90;;
73816;SDS011;62146;53.232;-1.304;2022-12-29T07:05:18;3.60;;;0.95;;
73816;SDS011;62146;53.232;-1.304;2022-12-29T07:07:45;2.50;;;0.77;;
73816;SDS011;62146;53.232;-1.304;2022-12-29T07:10:11;4.22;;;0.80;;
73816;SDS011;62146;53.232;-1.304;2022-12-29T07:12:38;2.07;;;0.60;;
73816;SDS011;62146;53.232;-1.304;2022-12-29T07:15:04;3.75;;;0.70;;
73816;SDS011;62146;53.232;-1.304;2022-12-29T07:17:31;4.40;;;1.00;;
73816;SDS011;62146;53.232;-1.304;2022-12-29T07:19:59;3.53;;;0.80;;
73816;SDS011;62146;53.232;-1.304;2022-12-29T07:22:25;4.53;;;0.90;;
73816;SDS011;62146;53.232;-1.304;2022-12-29T07:24:52;2.93;;;0.70;;
73816;SDS011;62146;53.232;-1.304;2022-12-29T07:27:18;3.78;;;0.80;;
73816;SDS011;62146;53.232;-1.304;2022-12-29T07:29:45;5.20;;;1.00;;
73816;SDS011;62146;53.232;-1.304;2022-12-29T07:32:11;3.35;;;0.70;;
73816;SDS011;62146;53.232;-1.304;2022-12-29T07:34:38;3.83;;;0.98;;
73816;SDS011;62146;53.232;-1.304;2022-12-29T07:37:05;3.67;;;0.80;;
73816;SDS011;62146;53.232;-1.304;2022-12-29T07:39:32;4.32;;;0.70;;
73816;SDS011;62146;53.232;-1.304;2022-12-29T07:41:59;3.58;;;1.05;;
73816;SDS011;62146;53.232;-1.304;2022-12-29T07:44:30;3.13;;;0.80;;
73816;SDS011;62146;53.232;-1.304;2022-12-29T07:46:57;2.58;;;0.57;;
73816;SDS011;62146;53.232;-1.304;2022-12-29T07:49:24;4.77;;;0.83;;
73816;SDS011;62146;53.232;-1.304;2022-12-29T07:51:51;4.40;;;0.70;;
73816;SDS011;62146;53.232;-1.304;2022-12-29T07:54:17;5.55;;;1.00;;
73816;SDS011;62146;53.232;-1.304;2022-12-29T07:56:44;3.33;;;0.60;;
73816;SDS011;62146;53.232;-1.304;2022-12-29T07:59:11;2.80;;;0.75;;
73816;SDS011;62146;53.232;-1.304;2022-12-29T08:01:38;3.10;;;0.50;;
73816;SDS011;62146;53.232;-1.304;2022-12-29T08:04:05;3.55;;;0.70;;
73816;SDS011;62146;53.232;-1.304;2022-12-29T08:06:32;3.08;;;0.52;;
73816;SDS011;62146;53.232;-1.304;2022-12-29T08:08:59;4.80;;;1.05;;
73816;SDS011;62146;53.232;-1.304;2022-12-29T08:11:37;2.45;;;0.70;;
73816;SDS011;62146;53.232;-1.304;2022-12-29T08:14:04;3.33;;;0.70;;
73816;SDS011;62146;53.232;-1.304;2022-12-29T08:16:31;2.75;;;0.93;;
73816;SDS011;62146;53.232;-1.304;2022-12-29T08:18:58;4.25;;;0.70;;
73816;SDS011;62146;53.232;-1.304;2022-12-29T08:21:26;3.20;;;0.60;;
73816;SDS011;62146;53.232;-1.304;2022-12-29T08:23:54;3.63;;;0.70;;
73816;SDS011;62146;53.232;-1.304;2022-12-29T08:26:20;4.50;;;0.87;;
73816;SDS011;62146;53.232;-1.304;2022-12-29T08:28:49;5.30;;;0.90;;
73816;SDS011;62146;53.232;-1.304;2022-12-29T08:31:18;3.25;;;0.80;;
73816;SDS011;62146;53.232;-1.304;2022-12-29T08:33:45;3.00;;;0.60;;
73816;SDS011;62146;53.232;-1.304;2022-12-29T08:36:11;3.67;;;0.80;;
73816;SDS011;62146;53.232;-1.304;2022-12-29T08:38:38;5.20;;;0.80;;
73816;SDS011;62146;53.232;-1.304;2022-12-29T08:41:04;4.30;;;0.80;;
73816;SDS011;62146;53.232;-1.304;2022-12-29T08:43:31;2.97;;;0.80;;
73816;SDS011;62146;53.232;-1.304;2022-12-29T08:45:58;2.85;;;0.80;;
73816;SDS011;62146;53.232;-1.304;2022-12-29T08:48:25;3.55;;;0.63;;
73816;SDS011;62146;53.232;-1.304;2022-12-29T08:50:52;4.63;;;0.87;;
73816;SDS011;62146;53.232;-1.304;2022-12-29T08:53:20;3.60;;;0.70;;
73816;SDS011;62146;53.232;-1.304;2022-12-29T08:55:47;4.00;;;0.80;;
73816;SDS011;62146;53.232;-1.304;2022-12-29T08:58:26;6.25;;;0.80;;
73816;SDS011;62146;53.232;-1.304;2022-12-29T09:00:53;4.60;;;0.88;;
73816;SDS011;62146;53.232;-1.304;2022-12-29T09:03:21;3.27;;;0.80;;
73816;SDS011;62146;53.232;-1.304;2022-12-29T09:06:08;2.28;;;0.70;;
73816;SDS011;62146;53.232;-1.304;2022-12-29T09:08:35;6.05;;;0.80;;
73816;SDS011;62146;53.232;-1.304;2022-12-29T09:11:05;4.25;;;1.13;;
73816;SDS011;62146;53.232;-1.304;2022-12-29T09:13:35;4.50;;;1.00;;
73816;SDS011;62146;53.232;-1.304;2022-12-29T09:16:02;2.87;;;0.80;;
73816;SDS011;62146;53.232;-1.304;2022-12-29T09:18:29;5.05;;;0.90;;
73816;SDS011;62146;53.232;-1.304;2022-12-29T09:20:57;5.72;;;0.85;;
73816;SDS011;62146;53.232;-1.304;2022-12-29T09:23:25;3.88;;;0.70;;
73816;SDS011;62146;53.232;-1.304;2022-12-29T09:25:52;5.57;;;0.77;;
73816;SDS011;62146;53.232;-1.304;2022-12-29T09:28:19;3.43;;;0.70;;
73816;SDS011;62146;53.232;-1.304;2022-12-29T09:30:46;2.67;;;0.73;;
73816;SDS011;62146;53.232;-1.304;2022-12-29T09:33:13;4.63;;;1.10;;
73816;SDS011;62146;53.232;-1.304;2022-12-29T09:35:41;3.85;;;0.80;;
73816;SDS011;62146;53.232;-1.304;2022-12-29T09:38:09;3.13;;;0.88;;
73816;SDS011;62146;53.232;-1.304;2022-12-29T09:40:37;5.30;;;0.80;;
73816;SDS011;62146;53.232;-1.304;2022-12-29T09:45:44;6.25;;;0.98;;
73816;SDS011;62146;53.232;-1.304;2022-12-29T09:48:27;6.00;;;0.80;;
73816;SDS011;62146;53.232;-1.304;2022-12-29T09:51:00;5.75;;;0.70;;
73816;SDS011;62146;53.232;-1.304;2022-12-29T09:53:40;2.67;;;0.60;;
73816;SDS011;62146;53.232;-1.304;2022-12-29T09:56:13;9.50;;;1.27;;
73816;SDS011;62146;53.232;-1.304;2022-12-29T10:01:35;4.13;;;0.90;;
73816;SDS011;62146;53.232;-1.304;2022-12-29T10:04:08;5.28;;;0.98;;
73816;SDS011;62146;53.232;-1.304;2022-12-29T10:06:39;3.33;;;0.90;;
73816;SDS011;62146;53.232;-1.304;2022-12-29T10:15:34;4.18;;;0.80;;
73816;SDS011;62146;53.232;-1.304;2022-12-29T10:24:15;3.47;;;0.80;;
73816;SDS011;62146;53.232;-1.304;2022-12-29T10:26:43;5.50;;;1.15;;
73816;SDS011;62146;53.232;-1.304;2022-12-29T10:29:16;4.65;;;1.00;;
73816;SDS011;62146;53.232;-1.304;2022-12-29T10:31:46;6.45;;;1.25;;
73816;SDS011;62146;53.232;-1.304;2022-12-29T10:34:25;4.73;;;0.90;;
73816;SDS011;62146;53.232;-1.304;2022-12-29T10:37:02;5.50;;;1.13;;
73816;SDS011;62146;53.232;-1.304;2022-12-29T10:39:38;4.47;;;0.90;;
73816;SDS011;62146;53.232;-1.304;2022-12-29T10:42:14;7.55;;;1.50;;
73816;SDS011;62146;53.232;-1.304;2022-12-29T10:44:50;4.63;;;0.82;;
73816;SDS011;62146;53.232;-1.304;2022-12-29T10:47:18;5.93;;;1.30;;
73816;SDS011;62146;53.232;-1.304;2022-12-29T10:49:48;7.13;;;1.25;;
73816;SDS011;62146;53.232;-1.304;2022-12-29T10:52:16;6.32;;;1.38;;
73816;SDS011;62146;53.232;-1.304;2022-12-29T10:57:22;6.53;;;1.02;;
73816;SDS011;62146;53.232;-1.304;2022-12-29T10:59:53;5.70;;;1.00;;
73816;SDS011;62146;53.232;-1.304;2022-12-29T11:07:41;7.95;;;1.10;;
73816;SDS011;62146;53.232;-1.304;2022-12-29T11:10:28;4.55;;;1.00;;
73816;SDS011;62146;53.232;-1.304;2022-12-29T11:13:11;6.47;;;1.10;;
73816;SDS011;62146;53.232;-1.304;2022-12-29T11:15:44;10.75;;;1.38;;
73816;SDS011;62146;53.232;-1.304;2022-12-29T11:18:23;6.90;;;1.60;;
73816;SDS011;62146;53.232;-1.304;2022-12-29T11:20:52;9.82;;;1.48;;
73816;SDS011;62146;53.232;-1.304;2022-12-29T11:23:26;6.03;;;1.30;;
73816;SDS011;62146;53.232;-1.304;2022-12-29T11:28:31;7.10;;;1.50;;
73816;SDS011;62146;53.232;-1.304;2022-12-29T11:31:00;8.35;;;1.25;;
73816;SDS011;62146;53.232;-1.304;2022-12-29T11:33:28;7.07;;;1.27;;
73816;SDS011;62146;53.232;-1.304;2022-12-29T11:36:05;6.22;;;1.17;;
73816;SDS011;62146;53.232;-1.304;2022-12-29T11:38:40;8.10;;;1.27;;
73816;SDS011;62146;53.232;-1.304;2022-12-29T11:41:12;8.68;;;1.73;;
73816;SDS011;62146;53.232;-1.304;2022-12-29T11:43:44;6.60;;;1.30;;
73816;SDS011;62146;53.232;-1.304;2022-12-29T11:46:14;9.50;;;1.35;;
73816;SDS011;62146;53.232;-1.304;2022-12-29T11:48:45;8.77;;;1.50;;
73816;SDS011;62146;53.232;-1.304;2022-12-29T11:51:20;8.77;;;1.40;;
73816;SDS011;62146;53.232;-1.304;2022-12-29T11:53:51;7.55;;;1.80;;
73816;SDS011;62146;53.232;-1.304;2022-12-29T11:56:32;7.72;;;1.20;;
73816;SDS011;62146;53.232;-1.304;2022-12-29T12:02:00;6.93;;;1.23;;
73816;SDS011;62146;53.232;-1.304;2022-12-29T12:04:37;5.13;;;1.30;;
73816;SDS011;62146;53.232;-1.304;2022-12-29T12:07:10;9.18;;;1.55;;
73816;SDS011;62146;53.232;-1.304;2022-12-29T12:09:41;9.77;;;1.35;;
73816;SDS011;62146;53.232;-1.304;2022-12-29T12:12:18;8.35;;;1.33;;
73816;SDS011;62146;53.232;-1.304;2022-12-29T12:14:56;10.02;;;1.45;;
73816;SDS011;62146;53.232;-1.304;2022-12-29T12:17:31;8.67;;;1.33;;
73816;SDS011;62146;53.232;-1.304;2022-12-29T12:20:10;9.85;;;1.42;;
73816;SDS011;62146;53.232;-1.304;2022-12-29T12:22:46;10.02;;;1.20;;
73816;SDS011;62146;53.232;-1.304;2022-12-29T12:31:50;8.07;;;1.40;;
73816;SDS011;62146;53.232;-1.304;2022-12-29T12:34:29;7.30;;;1.30;;
73816;SDS011;62146;53.232;-1.304;2022-12-29T12:42:44;8.50;;;1.50;;
73816;SDS011;62146;53.232;-1.304;2022-12-29T12:45:29;7.97;;;1.30;;
73816;SDS011;62146;53.232;-1.304;2022-12-29T12:48:04;7.43;;;1.60;;
73816;SDS011;62146;53.232;-1.304;2022-12-29T12:58:59;10.20;;;1.70;;
73816;SDS011;62146;53.232;-1.304;2022-12-29T13:09:58;7.55;;;1.50;;
73816;SDS011;62146;53.232;-1.304;2022-12-29T13:15:17;9.45;;;1.45;;
73816;SDS011;62146;53.232;-1.304;2022-12-29T13:26:14;5.23;;;0.83;;
73816;SDS011;62146;53.232;-1.304;2022-12-29T13:31:24;7.63;;;1.65;;
73816;SDS011;62146;53.232;-1.304;2022-12-29T13:34:15;8.70;;;1.30;;
73816;SDS011;62146;53.232;-1.304;2022-12-29T13:37:12;8.00;;;1.10;;
73816;SDS011;62146;53.232;-1.304;2022-12-29T13:39:46;9.37;;;1.40;;
73816;SDS011;62146;53.232;-1.304;2022-12-29T13:42:16;7.55;;;1.73;;
73816;SDS011;62146;53.232;-1.304;2022-12-29T13:44:57;7.35;;;1.50;;
73816;SDS011;62146;53.232;-1.304;2022-12-29T13:47:27;9.32;;;1.42;;
73816;SDS011;62146;53.232;-1.304;2022-12-29T13:50:00;6.38;;;1.42;;
73816;SDS011;62146;53.232;-1.304;2022-12-29T13:52:34;9.03;;;1.57;;
73816;SDS011;62146;53.232;-1.304;2022-12-29T13:55:23;7.35;;;1.20;;
73816;SDS011;62146;53.232;-1.304;2022-12-29T14:00:58;7.70;;;1.25;;
73816;SDS011;62146;53.232;-1.304;2022-12-29T14:03:46;6.97;;;1.48;;
73816;SDS011;62146;53.232;-1.304;2022-12-29T14:08:42;7.90;;;1.55;;
73816;SDS011;62146;53.232;-1.304;2022-12-29T14:11:11;8.10;;;1.55;;
73816;SDS011;62146;53.232;-1.304;2022-12-29T14:13:41;9.15;;;1.75;;
73816;SDS011;62146;53.232;-1.304;2022-12-29T14:16:22;6.35;;;1.50;;
73816;SDS011;62146;53.232;-1.304;2022-12-29T14:19:43;9.57;;;1.77;;
73816;SDS011;62146;53.232;-1.304;2022-12-29T14:21:59;6.22;;;1.40;;
73816;SDS011;62146;53.232;-1.304;2022-12-29T14:29:42;7.20;;;1.45;;
73816;SDS011;62146;53.232;-1.304;2022-12-29T14:37:35;8.45;;;1.63;;
73816;SDS011;62146;53.232;-1.304;2022-12-29T14:42:41;9.35;;;1.52;;
73816;SDS011;62146;53.232;-1.304;2022-12-29T14:47:44;9.50;;;2.00;;
73816;SDS011;62146;53.232;-1.304;2022-12-29T14:50:22;8.50;;;1.98;;
73816;SDS011;62146;53.232;-1.304;2022-12-29T14:52:58;9.23;;;1.55;;
73816;SDS011;62146;53.232;-1.304;2022-12-29T15:00:43;7.13;;;1.30;;
73816;SDS011;62146;53.232;-1.304;2022-12-29T15:03:17;8.07;;;1.75;;
73816;SDS011;62146;53.232;-1.304;2022-12-29T15:08:39;8.05;;;1.77;;
73816;SDS011;62146;53.232;-1.304;2022-12-29T15:11:21;6.37;;;1.30;;
73816;SDS011;62146;53.232;-1.304;2022-12-29T15:17:09;9.23;;;1.58;;
73816;SDS011;62146;53.232;-1.304;2022-12-29T15:19:47;9.13;;;1.50;;
73816;SDS011;62146;53.232;-1.304;2022-12-29T15:22:14;8.65;;;1.50;;
73816;SDS011;62146;53.232;-1.304;2022-12-29T15:24:41;7.83;;;1.50;;
73816;SDS011;62146;53.232;-1.304;2022-12-29T15:27:15;10.93;;;1.50;;
73816;SDS011;62146;53.232;-1.304;2022-12-29T15:29:46;6.93;;;1.60;;
73816;SDS011;62146;53.232;-1.304;2022-12-29T15:34:43;6.47;;;1.60;;
73816;SDS011;62146;53.232;-1.304;2022-12-29T15:37:24;9.70;;;1.60;;
73816;SDS011;62146;53.232;-1.304;2022-12-29T15:39:52;10.32;;;1.45;;
73816;SDS011;62146;53.232;-1.304;2022-12-29T15:44:49;8.30;;;1.50;;
73816;SDS011;62146;53.232;-1.304;2022-12-29T15:47:26;8.88;;;1.60;;
73816;SDS011;62146;53.232;-1.304;2022-12-29T15:50:05;6.53;;;1.20;;
73816;SDS011;62146;53.232;-1.304;2022-12-29T15:52:48;7.80;;;1.60;;
73816;SDS011;62146;53.232;-1.304;2022-12-29T15:55:26;7.40;;;1.50;;
73816;SDS011;62146;53.232;-1.304;2022-12-29T15:58:04;6.55;;;1.00;;
73816;SDS011;62146;53.232;-1.304;2022-12-29T16:00:35;9.75;;;1.65;;
73816;SDS011;62146;53.232;-1.304;2022-12-29T16:03:04;8.23;;;1.90;;
73816;SDS011;62146;53.232;-1.304;2022-12-29T16:05:38;8.80;;;2.17;;
73816;SDS011;62146;53.232;-1.304;2022-12-29T16:08:20;9.02;;;2.33;;
73816;SDS011;62146;53.232;-1.304;2022-12-29T16:11:03;9.60;;;2.40;;
73816;SDS011;62146;53.232;-1.304;2022-12-29T16:13:41;11.20;;;2.55;;
73816;SDS011;62146;53.232;-1.304;2022-12-29T16:16:13;6.97;;;2.30;;
73816;SDS011;62146;53.232;-1.304;2022-12-29T16:18:45;6.80;;;2.15;;
73816;SDS011;62146;53.232;-1.304;2022-12-29T16:21:22;8.07;;;2.78;;
73816;SDS011;62146;53.232;-1.304;2022-12-29T16:23:52;8.75;;;2.67;;
73816;SDS011;62146;53.232;-1.304;2022-12-29T16:26:21;9.52;;;2.45;;
73816;SDS011;62146;53.232;-1.304;2022-12-29T16:28:50;8.00;;;2.00;;
73816;SDS011;62146;53.232;-1.304;2022-12-29T16:32:19;9.48;;;2.20;;
73816;SDS011;62146;53.232;-1.304;2022-12-29T16:34:30;10.98;;;2.47;;
73816;SDS011;62146;53.232;-1.304;2022-12-29T16:37:29;7.95;;;2.08;;
73816;SDS011;62146;53.232;-1.304;2022-12-29T16:42:46;7.37;;;1.83;;
73816;SDS011;62146;53.232;-1.304;2022-12-29T16:50:35;7.95;;;1.83;;
73816;SDS011;62146;53.232;-1.304;2022-12-29T16:53:04;10.52;;;2.00;;
73816;SDS011;62146;53.232;-1.304;2022-12-29T16:55:33;8.20;;;1.67;;
73816;SDS011;62146;53.232;-1.304;2022-12-29T16:58:00;8.10;;;1.35;;
73816;SDS011;62146;53.232;-1.304;2022-12-29T17:00:28;7.80;;;1.63;;
73816;SDS011;62146;53.232;-1.304;2022-12-29T17:03:00;12.73;;;1.80;;
73816;SDS011;62146;53.232;-1.304;2022-12-29T17:05:28;9.77;;;1.75;;
73816;SDS011;62146;53.232;-1.304;2022-12-29T17:07:55;10.00;;;1.87;;
73816;SDS011;62146;53.232;-1.304;2022-12-29T17:10:27;11.75;;;2.08;;
73816;SDS011;62146;53.232;-1.304;2022-12-29T17:13:13;8.30;;;2.03;;
73816;SDS011;62146;53.232;-1.304;2022-12-29T17:15:40;9.35;;;1.88;;
73816;SDS011;62146;53.232;-1.304;2022-12-29T17:18:07;6.13;;;1.58;;
73816;SDS011;62146;53.232;-1.304;2022-12-29T17:20:39;8.63;;;2.07;;
73816;SDS011;62146;53.232;-1.304;2022-12-29T17:23:10;7.00;;;2.17;;